Time;durP1;ratioP1;P1;durP2;ratioP2;P2;SDS_P1;SDS_P2;PMS_P1;PMS_P2;Temp;Humidity;BMP_temperature;BMP_pressure;BME280_temperature;BME280_humidity;BME280_pressure;Samples;Min_cycle;Max_cycle;Signal;HPM_P1;HPM_P2
2021/09/15 00:01:31;;;;;;;12.73;8.38;;;;;;;16.94;56.29;100235.59;5069979;28;20028;-21
2021/09/15 00:03:57;;;;;;;14.32;8.48;;;;;;;16.96;56.32;100241.53;5069698;28;20047;-21
2021/09/15 00:06:22;;;;;;;12.88;8.63;;;;;;;16.57;57.80;100236.28;5070066;28;20033;-21
2021/09/15 00:08:48;;;;;;;12.32;8.45;;;;;;;16.58;58.48;100249.50;5070563;28;20047;-22
2021/09/15 00:11:13;;;;;;;16.45;9.20;;;;;;;16.89;57.12;100244.44;5069806;28;20024;-21
2021/09/15 00:13:39;;;;;;;15.05;8.38;;;;;;;16.62;57.14;100239.06;5069763;28;20734;-21
2021/09/15 00:16:05;;;;;;;14.48;8.55;;;;;;;16.49;57.69;100240.28;5069805;28;20408;-21
2021/09/15 00:18:31;;;;;;;13.13;8.65;;;;;;;16.16;58.14;100225.94;5069864;28;20056;-21
2021/09/15 00:20:56;;;;;;;15.38;9.43;;;;;;;16.21;58.46;100244.00;5070052;28;20028;-21
2021/09/15 00:23:21;;;;;;;17.83;10.10;;;;;;;15.97;59.17;100240.75;5069852;28;20039;-21
2021/09/15 00:25:47;;;;;;;13.95;8.98;;;;;;;16.55;57.34;100241.13;5069295;28;20105;-21
2021/09/15 00:28:12;;;;;;;15.30;10.95;;;;;;;16.47;59.52;100242.41;5069705;28;20035;-21
2021/09/15 00:30:38;;;;;;;17.00;11.00;;;;;;;16.92;57.71;100253.88;5069695;28;20028;-21
2021/09/15 00:33:03;;;;;;;16.60;11.25;;;;;;;16.94;56.94;100255.28;5068864;28;20094;-21
2021/09/15 00:35:29;;;;;;;17.90;12.57;;;;;;;17.12;55.99;100237.91;5069561;28;20032;-21
2021/09/15 00:37:54;;;;;;;31.23;24.35;;;;;;;17.16;55.85;100222.84;5069385;28;20454;-21
2021/09/15 00:40:20;;;;;;;22.55;15.02;;;;;;;17.41;55.92;100243.75;5069373;28;20430;-21
2021/09/15 00:42:45;;;;;;;33.95;22.25;;;;;;;17.55;55.85;100241.44;5069468;28;20032;-21
2021/09/15 00:45:11;;;;;;;34.95;24.70;;;;;;;17.45;56.07;100252.16;5069460;28;20029;-21
2021/09/15 00:47:36;;;;;;;33.67;22.90;;;;;;;17.56;55.56;100236.84;5069385;28;20028;-21
2021/09/15 00:50:02;;;;;;;33.45;20.63;;;;;;;17.50;56.05;100249.47;5069349;28;20025;-21
2021/09/15 00:52:28;;;;;;;29.52;20.55;;;;;;;17.40;56.72;100242.13;5069161;28;20509;-21
2021/09/15 00:54:53;;;;;;;27.20;17.48;;;;;;;17.79;55.58;100246.41;5069169;28;20138;-21
2021/09/15 00:57:19;;;;;;;32.60;18.27;;;;;;;17.75;54.96;100232.63;5069110;28;20040;-21
2021/09/15 00:59:44;;;;;;;21.58;15.75;;;;;;;18.11;54.54;100242.81;5068834;28;20032;-21
2021/09/15 01:02:10;;;;;;;20.30;14.23;;;;;;;18.07;54.77;100237.91;5068692;28;20102;-21
2021/09/15 01:04:35;;;;;;;21.98;14.65;;;;;;;17.91;54.41;100233.53;5051353;28;20032;-21
2021/09/15 01:07:01;;;;;;;17.40;13.52;;;;;;;17.97;54.67;100242.47;5069208;28;20073;-21
2021/09/15 01:09:26;;;;;;;18.98;12.15;;;;;;;17.98;54.83;100239.50;5068812;28;20033;-22
2021/09/15 01:11:52;;;;;;;17.70;12.20;;;;;;;17.34;56.46;100224.28;5050743;28;20077;-21
2021/09/15 01:14:17;;;;;;;15.43;10.93;;;;;;;17.21;56.88;100220.19;5050848;28;20032;-22
2021/09/15 01:16:53;;;;;;;17.27;12.68;;;;;;;16.72;59.14;100238.34;5068574;28;20048;-21
2021/09/15 01:19:21;;;;;;;17.98;12.07;;;;;;;16.61;59.94;100240.09;5067445;28;20107;-21
2021/09/15 01:21:46;;;;;;;15.83;11.87;;;;;;;16.51;60.36;100238.16;5068468;28;20040;-21
2021/09/15 01:24:12;;;;;;;17.70;11.90;;;;;;;16.65;59.76;100233.97;5068641;28;20059;-21
2021/09/15 01:26:37;;;;;;;15.80;12.05;;;;;;;16.72;59.52;100232.97;5068752;28;20032;-22
2021/09/15 01:29:03;;;;;;;18.35;12.10;;;;;;;17.13;58.16;100234.13;5068376;28;20025;-21
2021/09/15 01:31:29;;;;;;;15.50;11.32;;;;;;;17.21;57.70;100233.66;5068312;28;20043;-21
2021/09/15 01:33:54;;;;;;;16.90;11.63;;;;;;;17.04;58.17;100225.72;5068163;28;20109;-21
2021/09/15 01:36:19;;;;;;;16.40;11.68;;;;;;;17.23;57.71;100234.19;5068478;28;20382;-21
2021/09/15 01:38:45;;;;;;;15.55;11.63;;;;;;;17.30;57.35;100233.16;5068697;28;20028;-21
2021/09/15 01:41:10;;;;;;;16.10;11.63;;;;;;;16.84;59.36;100220.97;5068368;28;20024;-21
2021/09/15 01:43:36;;;;;;;15.05;11.93;;;;;;;16.84;59.25;100233.63;5067815;28;20405;-21
2021/09/15 01:46:01;;;;;;;18.08;12.88;;;;;;;16.70;59.53;100235.91;5067766;28;20032;-21
2021/09/15 01:48:27;;;;;;;16.20;10.60;;;;;;;16.59;60.45;100250.31;5068147;28;20063;-21
2021/09/15 01:50:52;;;;;;;16.17;12.05;;;;;;;16.82;59.22;100239.28;5068427;28;20036;-21
2021/09/15 01:53:18;;;;;;;15.60;11.68;;;;;;;16.82;59.15;100236.56;5068081;28;20170;-21
2021/09/15 01:55:43;;;;;;;16.15;11.30;;;;;;;17.16;58.47;100248.97;5049746;28;20039;-21
2021/09/15 01:58:10;;;;;;;18.70;10.77;;;;;;;17.08;58.60;100252.97;5067726;28;20106;-21
2021/09/15 02:00:36;;;;;;;14.70;10.88;;;;;;;16.65;60.04;100227.75;5067915;28;20021;-22
2021/09/15 02:03:01;;;;;;;16.17;10.80;;;;;;;16.56;60.40;100250.84;5067978;28;20039;-21
2021/09/15 02:05:27;;;;;;;16.30;10.77;;;;;;;16.04;62.20;100234.13;5049957;28;20032;-21
2021/09/15 02:07:52;;;;;;;16.90;11.02;;;;;;;16.04;62.22;100249.47;5067234;28;20039;-21
2021/09/15 02:10:18;;;;;;;14.55;11.70;;;;;;;16.05;62.31;100257.25;5067738;28;20111;-21
2021/09/15 02:12:43;;;;;;;20.05;11.40;;;;;;;15.92;62.60;100246.09;5067928;28;20032;-21
2021/09/15 02:15:10;;;;;;;17.45;12.40;;;;;;;15.95;62.33;100230.25;5067826;28;20404;-21
2021/09/15 02:17:36;;;;;;;18.50;11.98;;;;;;;16.32;61.98;100261.88;5067433;28;20036;-21
2021/09/15 02:20:02;;;;;;;17.02;12.35;;;;;;;16.32;61.71;100259.19;5067547;28;20052;-21
2021/09/15 02:22:28;;;;;;;17.98;12.05;;;;;;;16.37;61.65;100264.66;5067347;28;20115;-21
2021/09/15 02:24:53;;;;;;;13.57;11.05;;;;;;;16.63;60.23;100246.88;5067557;28;20036;-21
2021/09/15 02:27:19;;;;;;;20.70;12.18;;;;;;;16.94;59.05;100252.56;5067494;28;20428;-21
2021/09/15 02:29:44;;;;;;;18.42;12.10;;;;;;;17.00;58.73;100261.50;5067302;28;20086;-21
2021/09/15 02:32:10;;;;;;;21.08;12.88;;;;;;;16.80;59.21;100257.53;5067522;28;20158;-21
2021/09/15 02:34:35;;;;;;;18.67;11.75;;;;;;;16.81;59.23;100256.50;5067173;28;20036;-21
2021/09/15 02:37:01;;;;;;;18.15;12.27;;;;;;;16.99;58.60;100260.69;5067059;28;20029;-21
2021/09/15 02:39:26;;;;;;;22.10;11.48;;;;;;;17.30;57.64;100260.13;5067163;28;20075;-21
2021/09/15 02:41:52;;;;;;;17.55;12.02;;;;;;;17.09;58.66;100264.56;5066984;28;20054;-21
2021/09/15 02:44:17;;;;;;;15.02;12.40;;;;;;;17.04;59.15;100257.22;5067176;28;20400;-22
2021/09/15 02:46:43;;;;;;;18.27;11.90;;;;;;;16.87;59.40;100262.75;5067289;28;20033;-21
2021/09/15 02:49:08;;;;;;;16.42;11.93;;;;;;;16.74;59.55;100263.13;5049301;28;20028;-21
2021/09/15 02:51:34;;;;;;;17.45;12.05;;;;;;;15.86;62.24;100258.66;5067022;28;20504;-21
2021/09/15 02:53:59;;;;;;;17.08;12.05;;;;;;;15.94;63.02;100260.91;5067191;28;20091;-21
2021/09/15 02:56:25;;;;;;;16.02;11.40;;;;;;;16.13;62.01;100265.97;5066983;28;20029;-21
2021/09/15 02:58:50;;;;;;;18.92;11.23;;;;;;;15.83;62.33;100251.91;5066905;28;20443;-21
2021/09/15 03:01:16;;;;;;;17.60;11.65;;;;;;;16.12;61.19;100267.03;5067026;28;20021;-21
2021/09/15 03:03:41;;;;;;;15.30;10.80;;;;;;;16.19;61.43;100264.97;5067046;28;20037;-21
2021/09/15 03:06:07;;;;;;;19.95;11.85;;;;;;;16.03;61.67;100242.44;5066924;28;20028;-22
2021/09/15 03:08:32;;;;;;;16.70;10.73;;;;;;;16.09;61.94;100273.72;5066956;28;20039;-21
2021/09/15 03:10:58;;;;;;;16.23;11.48;;;;;;;15.86;62.22;100280.16;5067078;28;20096;-21
2021/09/15 03:13:23;;;;;;;15.68;11.55;;;;;;;15.73;62.76;100280.50;5066799;28;20039;-21
2021/09/15 03:15:48;;;;;;;16.08;11.23;;;;;;;15.74;63.65;100276.78;5067087;28;20025;-22
2021/09/15 03:18:14;;;;;;;17.65;11.30;;;;;;;16.01;62.28;100274.16;5066952;28;20033;-21
2021/09/15 03:20:39;;;;;;;17.80;11.00;;;;;;;16.35;60.30;100269.47;5066555;28;20029;-21
2021/09/15 03:23:05;;;;;;;16.08;10.73;;;;;;;16.31;60.54;100281.81;5067242;28;20060;-21
2021/09/15 03:25:30;;;;;;;13.00;10.60;;;;;;;16.53;60.26;100287.16;5066826;28;20089;-22
2021/09/15 03:27:56;;;;;;;17.10;11.25;;;;;;;16.29;60.80;100283.94;5066876;28;20039;-21
2021/09/15 03:30:21;;;;;;;15.77;10.38;;;;;;;15.97;61.08;100291.88;5066699;28;20082;-21
2021/09/15 03:32:47;;;;;;;17.27;10.98;;;;;;;15.95;61.12;100289.41;5066788;28;20408;-21
2021/09/15 03:35:12;;;;;;;15.50;11.05;;;;;;;16.04;61.01;100298.69;5066313;28;20032;-21
2021/09/15 03:37:38;;;;;;;16.38;10.68;;;;;;;15.71;62.75;100291.47;5065961;28;20440;-21
2021/09/15 03:40:04;;;;;;;15.20;10.98;;;;;;;16.15;61.25;100296.13;5066336;28;20024;-21
2021/09/15 03:42:30;;;;;;;15.63;10.82;;;;;;;16.23;60.51;100291.13;5065422;28;20028;-21
2021/09/15 03:44:55;;;;;;;14.55;10.80;;;;;;;16.19;60.32;100294.56;5066771;28;20028;-21
2021/09/15 03:47:21;;;;;;;15.63;11.50;;;;;;;16.25;60.65;100301.63;5066616;28;20043;-21
2021/09/15 03:49:46;;;;;;;16.42;11.18;;;;;;;16.18;60.14;100295.63;5066300;28;20424;-21
2021/09/15 03:52:12;;;;;;;15.10;10.63;;;;;;;15.75;61.90;100297.22;5066871;28;20044;-21
2021/09/15 03:54:37;;;;;;;15.15;11.43;;;;;;;15.62;62.18;100307.22;5066301;28;20064;-21
2021/09/15 03:57:03;;;;;;;16.60;10.77;;;;;;;15.79;62.15;100312.63;5066562;28;20029;-21
2021/09/15 03:59:28;;;;;;;15.55;10.90;;;;;;;15.74;61.58;100311.72;5066403;28;20024;-21
2021/09/15 04:01:54;;;;;;;28.20;12.13;;;;;;;15.90;61.04;100305.50;5066509;28;20043;-21
2021/09/15 04:04:19;;;;;;;38.38;13.38;;;;;;;16.20;59.86;100297.03;5066575;28;20036;-21
2021/09/15 04:06:45;;;;;;;28.00;12.30;;;;;;;15.94;61.04;100295.88;5066377;28;20036;-21
2021/09/15 04:09:10;;;;;;;15.57;11.55;;;;;;;15.36;62.99;100319.44;5069532;28;20036;-21
2021/09/15 04:11:35;;;;;;;15.85;10.88;;;;;;;15.31;63.54;100313.19;5070032;28;20048;-21
2021/09/15 04:14:01;;;;;;;15.68;11.50;;;;;;;15.34;62.61;100293.88;5070058;28;20044;-21
2021/09/15 04:16:27;;;;;;;17.17;11.25;;;;;;;15.22;64.08;100318.13;5070095;28;20025;-21
2021/09/15 04:18:52;;;;;;;16.60;11.57;;;;;;;14.89;65.07;100325.09;5069686;28;20063;-21
2021/09/15 04:21:18;;;;;;;16.42;11.60;;;;;;;15.26;63.61;100330.84;5069750;28;20016;-21
2021/09/15 04:31:37;;;;;;;16.30;10.65;;;;;;;16.29;59.94;100326.19;5069696;28;20458;-21
2021/09/15 04:34:02;;;;;;;15.65;11.50;;;;;;;16.41;60.08;100326.88;5069615;28;20476;-21
2021/09/15 04:36:28;;;;;;;16.65;10.70;;;;;;;16.36;60.02;100332.97;5069591;28;20052;-21
2021/09/15 04:38:53;;;;;;;13.25;9.88;;;;;;;16.22;60.61;100334.41;5069872;28;20543;-21
2021/09/15 04:41:19;;;;;;;18.52;11.90;;;;;;;16.22;60.42;100337.09;5069235;28;20024;-21
2021/09/15 04:43:44;;;;;;;15.35;10.32;;;;;;;16.15;60.08;100331.09;5069408;28;20033;-21
2021/09/15 04:46:10;;;;;;;15.35;10.48;;;;;;;16.21;60.14;100341.69;5069217;28;20024;-22
2021/09/15 04:48:37;;;;;;;14.18;11.02;;;;;;;16.19;59.97;100311.53;5051455;28;20041;-21
2021/09/15 04:51:03;;;;;;;18.77;11.25;;;;;;;16.37;60.93;100323.84;5069337;28;20054;-21
2021/09/15 04:53:28;;;;;;;13.77;10.05;;;;;;;16.21;60.49;100335.50;5069017;28;20048;-21
2021/09/15 04:55:54;;;;;;;17.15;10.60;;;;;;;16.17;60.90;100339.75;5068945;28;20029;-21
2021/09/15 04:58:19;;;;;;;15.98;11.25;;;;;;;16.21;60.81;100344.38;5069217;28;20491;-21
2021/09/15 05:00:45;;;;;;;14.63;10.93;;;;;;;16.20;60.80;100332.00;5069051;28;20017;-21
2021/09/15 05:03:10;;;;;;;15.20;11.00;;;;;;;16.47;60.10;100337.44;5069296;28;20508;-21
2021/09/15 05:05:36;;;;;;;14.57;10.30;;;;;;;16.64;59.82;100342.75;5068973;28;20029;-21
2021/09/15 05:08:01;;;;;;;14.52;10.27;;;;;;;17.05;58.73;100350.47;5069134;28;20032;-21
2021/09/15 05:10:27;;;;;;;20.27;10.95;;;;;;;17.23;58.27;100351.97;5068837;28;20081;-21
2021/09/15 05:12:53;;;;;;;16.77;10.23;;;;;;;17.08;57.84;100339.19;5069022;28;20040;-21
2021/09/15 05:15:18;;;;;;;15.02;10.35;;;;;;;17.31;57.31;100348.03;5068669;28;20024;-21
2021/09/15 05:17:44;;;;;;;12.98;9.75;;;;;;;17.20;57.47;100345.22;5068756;28;20028;-21
2021/09/15 05:20:10;;;;;;;13.07;9.80;;;;;;;17.33;57.43;100354.78;5068497;28;20394;-22
2021/09/15 05:22:35;;;;;;;16.35;10.07;;;;;;;17.27;57.02;100343.13;5068376;28;20032;-21
2021/09/15 05:25:01;;;;;;;12.00;9.20;;;;;;;17.17;57.04;100353.81;5068858;28;20043;-21
2021/09/15 05:27:26;;;;;;;15.90;9.40;;;;;;;17.03;57.14;100349.91;5068564;28;20551;-21
2021/09/15 05:29:52;;;;;;;16.17;10.15;;;;;;;17.27;57.02;100358.50;5068316;28;20020;-21
2021/09/15 05:32:17;;;;;;;17.63;10.32;;;;;;;17.20;56.97;100342.53;5068430;28;20477;-22
2021/09/15 05:34:42;;;;;;;17.02;9.73;;;;;;;17.30;56.57;100346.38;5068421;28;20039;-21
2021/09/15 05:37:08;;;;;;;14.85;10.73;;;;;;;17.27;56.24;100353.91;5068453;28;20032;-21
2021/09/15 05:39:33;;;;;;;20.92;10.73;;;;;;;17.56;56.29;100345.50;5068344;28;20032;-21
2021/09/15 05:41:59;;;;;;;17.15;10.45;;;;;;;17.56;54.70;100356.28;5068447;28;20032;-21
2021/09/15 05:44:24;;;;;;;15.70;10.38;;;;;;;17.53;55.16;100364.91;5067967;28;20067;-21
2021/09/15 05:46:50;;;;;;;19.08;11.68;;;;;;;17.49;55.59;100350.31;5068286;28;20040;-21
2021/09/15 05:49:15;;;;;;;24.17;11.85;;;;;;;17.65;55.44;100362.84;5068032;28;20024;-21
2021/09/15 05:51:41;;;;;;;14.20;9.30;;;;;;;17.94;55.00;100354.44;5068055;28;20824;-21
2021/09/15 05:54:08;;;;;;;16.33;9.73;;;;;;;17.90;54.52;100355.19;5067688;28;20069;-21
2021/09/15 05:56:33;;;;;;;14.57;10.07;;;;;;;17.91;54.70;100370.31;5068285;28;20032;-21
2021/09/15 05:58:59;;;;;;;15.35;10.40;;;;;;;18.09;54.19;100348.31;5067766;28;20109;-22
2021/09/15 06:01:24;;;;;;;17.70;10.45;;;;;;;18.36;53.04;100368.94;5067687;28;20043;-21
2021/09/15 06:03:50;;;;;;;13.10;8.77;;;;;;;18.26;53.25;100353.50;5067522;28;20032;-21
2021/09/15 06:06:15;;;;;;;12.88;9.20;;;;;;;18.38;53.49;100364.91;5067858;28;20029;-21
2021/09/15 06:08:41;;;;;;;16.45;9.98;;;;;;;18.39;53.36;100369.25;5067819;28;20562;-22
2021/09/15 06:11:06;;;;;;;13.95;9.30;;;;;;;18.62;52.38;100356.38;5067617;28;20056;-22
2021/09/15 06:13:32;;;;;;;15.27;9.23;;;;;;;18.67;52.46;100373.41;5067299;28;20389;-22
2021/09/15 06:15:57;;;;;;;11.85;8.40;;;;;;;18.92;51.54;100371.91;5067478;28;20036;-21
2021/09/15 06:18:23;;;;;;;12.98;8.52;;;;;;;19.15;51.22;100375.19;5067827;28;20825;-21
2021/09/15 06:20:48;;;;;;;12.02;8.45;;;;;;;19.13;51.56;100369.22;5067162;28;20028;-22
2021/09/15 06:23:14;;;;;;;11.88;8.65;;;;;;;19.30;50.30;100358.16;5067288;28;20094;-21
2021/09/15 06:25:42;;;;;;;11.63;8.23;;;;;;;19.65;49.36;100368.94;5067054;28;20040;-21
2021/09/15 06:28:08;;;;;;;10.77;7.40;;;;;;;19.60;49.33;100366.25;5067198;28;20025;-21
2021/09/15 06:30:36;;;;;;;11.27;8.05;;;;;;;19.57;49.26;100366.78;5066900;28;20538;-21
2021/09/15 06:33:02;;;;;;;11.40;7.60;;;;;;;19.88;48.73;100369.53;5067293;28;20573;-21
2021/09/15 06:35:27;;;;;;;11.35;8.20;;;;;;;19.87;47.53;100351.66;5067153;28;20066;-21
2021/09/15 06:37:53;;;;;;;14.95;7.90;;;;;;;20.03;47.98;100364.06;5049384;28;20048;-21
2021/09/15 06:40:18;;;;;;;13.77;7.60;;;;;;;20.05;47.63;100358.38;5067793;28;20029;-21
2021/09/15 06:42:44;;;;;;;12.05;7.95;;;;;;;19.90;47.24;100359.22;5049670;28;20404;-21
2021/09/15 06:45:10;;;;;;;10.45;7.60;;;;;;;20.21;47.09;100345.63;5067251;28;20033;-21
2021/09/15 06:47:42;;;;;;;10.93;7.35;;;;;;;20.36;47.45;100360.97;5067370;28;20484;-21
2021/09/15 06:50:09;;;;;;;12.68;7.25;;;;;;;20.48;47.23;100356.06;5067300;28;20041;-21
2021/09/15 06:52:34;;;;;;;12.70;8.05;;;;;;;20.64;46.35;100343.28;5067253;28;20070;-21
2021/09/15 06:54:59;;;;;;;10.20;7.53;;;;;;;21.03;45.56;100365.00;5067141;28;20070;-21
2021/09/15 06:57:25;;;;;;;10.90;7.93;;;;;;;20.85;45.53;100371.88;5066785;28;20048;-21
2021/09/15 06:59:50;;;;;;;11.05;7.32;;;;;;;20.82;45.37;100371.63;5066671;28;20392;-21
2021/09/15 07:02:16;;;;;;;9.77;6.75;;;;;;;21.06;44.68;100358.19;5067274;28;20040;-21
2021/09/15 07:04:41;;;;;;;10.60;6.82;;;;;;;21.12;44.83;100367.91;5066671;28;20044;-21
2021/09/15 07:07:07;;;;;;;11.98;7.47;;;;;;;21.54;44.23;100373.88;5066988;28;20473;-21
2021/09/15 07:09:33;;;;;;;13.25;8.27;;;;;;;21.89;43.54;100372.72;5066816;28;20032;-21
2021/09/15 07:11:59;;;;;;;13.80;7.60;;;;;;;22.09;43.29;100366.28;5066554;28;20121;-21
2021/09/15 07:14:24;;;;;;;11.93;7.60;;;;;;;22.16;42.62;100368.66;5066964;28;20505;-21
2021/09/15 07:16:49;;;;;;;13.75;7.18;;;;;;;21.99;42.28;100366.41;5067121;28;20031;-21
2021/09/15 07:19:15;;;;;;;11.43;7.97;;;;;;;22.15;42.76;100362.41;5066777;28;20025;-21
2021/09/15 07:21:40;;;;;;;12.25;7.07;;;;;;;22.32;42.03;100377.47;5066550;28;20400;-21
2021/09/15 07:24:06;;;;;;;11.65;6.90;;;;;;;22.47;42.79;100369.13;5066845;28;20055;-21
2021/09/15 07:26:31;;;;;;;10.02;6.43;;;;;;;22.82;41.73;100365.13;5066790;28;20043;-22
2021/09/15 07:28:57;;;;;;;10.23;6.90;;;;;;;22.77;41.25;100378.00;5066659;28;20495;-22
2021/09/15 07:31:22;;;;;;;9.70;6.05;;;;;;;22.78;41.31;100364.09;5066435;28;20036;-22
2021/09/15 07:33:48;;;;;;;9.18;6.32;;;;;;;22.77;41.61;100373.34;5066423;28;20032;-21
2021/09/15 07:36:13;;;;;;;11.20;6.40;;;;;;;23.05;39.88;100358.03;5066498;28;20036;-21
2021/09/15 07:38:39;;;;;;;12.10;6.55;;;;;;;23.21;39.76;100355.88;5066513;28;20412;-21
2021/09/15 07:41:04;;;;;;;11.23;6.65;;;;;;;23.44;39.35;100353.34;5066455;28;20032;-21
2021/09/15 07:43:30;;;;;;;9.88;6.13;;;;;;;23.64;39.07;100363.88;5050991;28;20028;-21
2021/09/15 07:45:55;;;;;;;10.25;6.20;;;;;;;23.66;39.17;100374.47;5070265;28;20041;-21
2021/09/15 07:48:21;;;;;;;9.50;6.10;;;;;;;23.55;38.87;100348.53;5070912;28;20040;-21
2021/09/15 07:50:48;;;;;;;8.68;6.00;;;;;;;24.11;38.60;100376.66;5070753;28;20036;-21
2021/09/15 07:53:14;;;;;;;8.77;6.07;;;;;;;24.66;38.32;100369.31;5070373;28;20098;-21
2021/09/15 07:55:39;;;;;;;10.82;6.15;;;;;;;24.93;37.56;100370.34;5070054;28;20112;-21
2021/09/15 07:58:05;;;;;;;9.77;5.93;;;;;;;24.67;38.06;100383.75;5070331;28;20040;-22
2021/09/15 08:00:30;;;;;;;11.43;6.57;;;;;;;24.42;38.52;100361.34;5069993;28;20038;-22
2021/09/15 08:02:56;;;;;;;10.65;6.32;;;;;;;24.16;38.77;100360.22;5070143;28;20408;-22
2021/09/15 08:05:21;;;;;;;13.57;6.03;;;;;;;24.37;38.43;100358.69;5070279;28;20032;-21
2021/09/15 08:07:47;;;;;;;9.27;6.22;;;;;;;24.88;38.83;100375.09;5069860;28;20090;-21
2021/09/15 08:10:13;;;;;;;11.15;6.53;;;;;;;24.99;38.61;100376.50;5069944;28;20025;-21
2021/09/15 08:12:38;;;;;;;10.77;5.95;;;;;;;24.81;38.25;100373.63;5070391;28;20035;-21
2021/09/15 08:15:04;;;;;;;9.50;6.05;;;;;;;24.96;37.85;100368.94;5070205;28;20029;-21
2021/09/15 08:17:30;;;;;;;9.27;6.43;;;;;;;24.89;38.25;100373.97;5069806;28;20028;-21
2021/09/15 08:19:56;;;;;;;11.57;6.50;;;;;;;24.97;37.12;100359.63;5070102;28;20143;-21
2021/09/15 08:22:21;;;;;;;9.73;6.65;;;;;;;25.30;37.21;100375.81;5069928;28;20021;-21
2021/09/15 08:24:47;;;;;;;10.18;6.28;;;;;;;25.44;37.41;100368.38;5070094;28;20388;-22
2021/09/15 08:27:12;;;;;;;9.05;6.28;;;;;;;25.55;36.37;100375.16;5069860;28;20495;-21
2021/09/15 08:29:38;;;;;;;11.02;6.30;;;;;;;25.76;36.45;100350.84;5069627;28;20032;-21
2021/09/15 08:32:03;;;;;;;12.48;5.90;;;;;;;25.98;35.53;100362.88;5069506;28;20043;-21
2021/09/15 08:34:29;;;;;;;11.05;6.68;;;;;;;26.01;35.37;100365.81;5069706;28;20028;-21
2021/09/15 08:36:54;;;;;;;11.70;6.10;;;;;;;26.03;35.34;100346.34;5069591;28;20089;-21
2021/09/15 08:39:21;;;;;;;9.30;6.15;;;;;;;26.42;34.62;100363.84;5069682;28;20499;-21
2021/09/15 08:41:48;;;;;;;9.70;6.35;;;;;;;26.51;34.34;100345.50;5069436;28;20160;-21
2021/09/15 08:44:14;;;;;;;8.75;6.43;;;;;;;26.93;33.32;100348.66;5069836;28;20036;-21
2021/09/15 08:46:39;;;;;;;10.55;6.03;;;;;;;27.08;33.57;100352.81;5069522;28;20036;-21
2021/09/15 08:49:05;;;;;;;10.60;6.60;;;;;;;26.93;32.81;100343.19;5034513;28;20032;-21
2021/09/15 08:51:32;;;;;;;10.88;6.30;;;;;;;27.14;33.02;100356.22;5034695;28;20044;-21
2021/09/15 08:53:57;;;;;;;10.98;7.13;;;;;;;27.16;32.35;100354.75;5034002;28;20135;-21
2021/09/15 08:56:23;;;;;;;10.82;7.80;;;;;;;27.31;33.02;100328.81;5069327;28;20549;-21
2021/09/15 08:58:49;;;;;;;10.20;6.40;;;;;;;27.31;32.28;100333.50;5069224;28;20052;-21
2021/09/15 09:01:15;;;;;;;10.93;6.63;;;;;;;27.69;32.13;100343.72;5068941;28;20499;-21
2021/09/15 09:03:41;;;;;;;9.60;6.90;;;;;;;27.78;30.61;100341.75;5068889;28;20519;-21
2021/09/15 09:06:08;;;;;;;9.27;6.50;;;;;;;27.79;31.57;100332.41;5068918;28;20029;-21
2021/09/15 09:08:34;;;;;;;10.88;6.80;;;;;;;27.84;29.62;100337.69;5069226;28;20035;-21
2021/09/15 09:10:59;;;;;;;10.40;6.82;;;;;;;27.71;31.02;100330.50;5034318;28;20040;-21
2021/09/15 09:13:24;;;;;;;10.90;7.00;;;;;;;27.51;31.75;100329.28;5034457;28;20040;-21
2021/09/15 09:15:53;;;;;;;13.30;6.85;;;;;;;27.78;32.72;100330.78;5068723;28;20032;-21
2021/09/15 09:18:18;;;;;;;16.90;6.82;;;;;;;28.12;31.20;100334.53;5068682;28;20151;-21
2021/09/15 09:20:44;;;;;;;9.85;6.78;;;;;;;27.80;30.41;100326.56;5069021;28;20025;-21
2021/09/15 09:23:14;;;;;;;11.02;7.18;;;;;;;27.88;30.50;100327.72;5068640;28;20481;-21
2021/09/15 09:25:55;;;;;;;10.10;7.32;;;;;;;28.21;30.01;100318.84;5068498;28;20476;-21
2021/09/15 09:28:36;;;;;;;9.18;7.18;;;;;;;28.52;30.10;100320.44;5068540;28;20037;-21
2021/09/15 09:31:06;;;;;;;11.88;7.85;;;;;;;28.87;29.23;100300.94;5068524;28;20074;-21
2021/09/15 09:33:32;;;;;;;11.43;7.75;;;;;;;28.93;28.25;100299.59;5068567;28;20089;-21
2021/09/15 09:36:00;;;;;;;10.88;7.30;;;;;;;28.89;29.01;100309.66;5050354;28;20029;-21
2021/09/15 09:38:29;;;;;;;;;;;;;;;29.42;28.78;100305.28;5068964;28;20062;-21
2021/09/15 09:41:05;;;;;;;12.13;7.65;;;;;;;29.74;28.08;100308.34;5068187;28;20007;-21
2021/09/15 09:43:33;;;;;;;10.00;6.32;;;;;;;29.58;27.47;100314.47;5068529;28;20025;-21
2021/09/15 09:45:58;;;;;;;;;;;;;;;29.44;28.85;100298.31;5068335;28;20032;-21
2021/09/15 09:48:31;;;;;;;11.90;7.05;;;;;;;29.62;27.78;100290.66;5068436;28;19995;-21
2021/09/15 09:50:56;;;;;;;11.25;7.22;;;;;;;29.85;28.33;100292.97;5068097;28;20086;-21
2021/09/15 09:53:22;;;;;;;13.18;7.40;;;;;;;29.59;27.85;100291.34;5049932;28;20056;-21
2021/09/15 09:55:48;;;;;;;9.07;6.88;;;;;;;29.50;29.09;100293.38;5068138;28;20032;-21
2021/09/15 09:58:14;;;;;;;11.45;6.70;;;;;;;29.68;27.38;100293.19;5067896;28;20028;-21
2021/09/15 10:00:41;;;;;;;13.15;6.80;;;;;;;29.80;27.32;100279.47;5050185;28;20049;-21
2021/09/15 10:03:07;;;;;;;10.35;6.50;;;;;;;30.11;26.34;100292.63;5050319;28;20079;-21
2021/09/15 10:05:32;;;;;;;8.35;5.93;;;;;;;30.44;25.07;100286.19;5067247;28;20036;-21
2021/09/15 10:07:58;;;;;;;9.75;5.95;;;;;;;30.61;25.97;100279.63;5049695;28;20031;-21
2021/09/15 10:10:23;;;;;;;12.70;6.63;;;;;;;31.01;25.50;100270.50;5067972;28;20098;-21
2021/09/15 10:12:51;;;;;;;10.50;6.40;;;;;;;31.00;24.36;100275.22;5067800;28;20039;-21
2021/09/15 10:15:17;;;;;;;10.13;6.00;;;;;;;30.29;24.75;100273.13;5067492;28;20036;-21
2021/09/15 10:17:50;;;;;;;10.18;6.78;;;;;;;30.66;24.67;100286.81;5067697;28;20025;-21
2021/09/15 10:20:16;;;;;;;11.57;6.68;;;;;;;30.77;25.09;100274.97;5067827;28;20032;-21
2021/09/15 10:22:46;;;;;;;9.45;6.30;;;;;;;30.95;24.59;100283.72;5033150;28;20040;-21
2021/09/15 10:25:12;;;;;;;10.13;7.05;;;;;;;31.13;24.62;100267.69;5067448;28;20063;-21
2021/09/15 10:28:01;;;;;;;9.55;6.03;;;;;;;31.14;26.09;100269.31;5067234;28;20024;-21
2021/09/15 10:31:01;;;;;;;10.27;6.35;;;;;;;31.61;24.61;100276.81;5067358;28;20032;-22
2021/09/15 10:33:36;;;;;;;7.95;6.10;;;;;;;31.88;23.60;100276.28;4985784;28;20027;-21
2021/09/15 10:36:13;;;;;;;8.73;6.57;;;;;;;31.66;23.21;100275.75;5055048;28;20494;-23
2021/09/15 10:38:50;;;;;;;11.93;6.75;;;;;;;32.38;23.40;100280.16;5067441;28;20024;-24
2021/09/15 10:41:39;;;;;;;9.07;6.80;;;;;;;32.41;23.71;100279.44;5067249;28;20063;-24
2021/09/15 10:44:11;;;;;;;9.10;6.68;;;;;;;32.46;23.83;100275.59;5067266;28;20116;-24
2021/09/15 10:46:37;;;;;;;10.18;6.45;;;;;;;33.01;22.43;100263.31;5067880;28;20101;-24
2021/09/15 10:49:39;;;;;;;13.85;6.80;;;;;;;32.28;22.87;100267.72;5069067;28;20029;-24
2021/09/15 10:52:10;;;;;;;9.48;6.10;;;;;;;32.12;24.97;100266.97;5068890;28;20534;-21
2021/09/15 10:54:55;;;;;;;12.57;6.72;;;;;;;32.01;25.42;100261.22;5069035;28;20052;-21
2021/09/15 10:57:27;;;;;;;9.73;6.78;;;;;;;32.88;22.64;100253.59;5069035;28;20055;-21
2021/09/15 10:59:57;;;;;;;9.45;7.13;;;;;;;32.60;22.98;100262.13;5068495;28;20036;-21
2021/09/15 11:02:25;;;;;;;11.35;6.78;;;;;;;31.46;26.11;100250.03;5068592;28;20033;-21
2021/09/15 11:04:50;;;;;;;14.25;7.35;;;;;;;30.89;27.66;100248.53;5068905;28;20028;-21
2021/09/15 11:07:47;;;;;;;13.35;7.32;;;;;;;30.04;29.16;100243.72;5068626;28;20055;-21
2021/09/15 11:10:31;;;;;;;9.23;7.28;;;;;;;29.56;29.56;100231.56;5068784;28;20030;-21
2021/09/15 11:12:56;;;;;;;18.73;8.00;;;;;;;29.07;30.37;100231.47;5068760;28;20071;-21
2021/09/15 11:15:29;;;;;;;34.40;18.25;;;;;;;29.03;30.17;100230.53;5050780;28;20063;-21
2021/09/15 11:17:54;;;;;;;192.02;70.65;;;;;;;28.75;30.55;100214.69;5071472;28;20040;-21
2021/09/15 11:20:24;;;;;;;13.00;7.95;;;;;;;28.72;31.09;100196.16;5055087;28;20101;-21